Struthers, Ohio
Current Conditions -  °F | °C
As of 12:41 AM on Tuesday 27 Jan 2015 (Local Time) from KUCP Reporting Station
Light Snow Light Snow  
Wind Chill: 19°   Ceiling: 1600
Heat Index: 19°   Visibility: 10mi
Dew Point: 16°   Wind: 0mph
Humidity: 86%   Direction: NA
Pressure: 29.86"   Gusts: NA
Location:  41.05°N, 80.59°W
Report Text: KUCP 270541Z AUTO 00000KT 10SM -SN OVC016 M07/M09 A2986 RMK AO2 SNB21 P0000
Loading
Personal Weather Stations






























Interactive Weather Map New forecast layout! Learn more

10-Day Weather Forecast

Advertisements
Track Severe Weather on mobile